Terminal Aerodrome Forecast
Issued by NWS

Home | Current Version | Previous Version | Text Only | Print | Product List | Glossary On
Versions: 1 2 3 4 5 6 7 8 9 10 11 12 13 14 15 16
000
FTUS43 KFGF 291500 AAA
TAFTVF
TAF AMD
KTVF 291501Z 2915/3012 14005KT P6SM BKN005
     FM291800 32005KT P6SM BKN015
     FM292100 36013KT P6SM VCTS SCT030CB BKN050
      TEMPO 2921/2923 4SM -SHRA OVC025
     FM300100 35008KT P6SM SCT050
      AMD LTD TO CLD VIS AND WIND=

USA.gov is the U.S. government's official web portal to all federal, state and local government web resources and services.